Terminal Aerodrome Forecast
Issued by NWS Louisville, KY

Home | Current Version | Previous Version | Text Only | Print | Product List | Glossary On
Versions: 1 2 3 4 5 6 7 8 9 10 11 12 13 14
000
FTUS43 KLMK 281700
TAFLEX
TAF
KLEX 281736Z 2818/2918 24013G20KT 6SM -SHRA SCT025 BKN035
      TEMPO 2819/2823 5SM BR BKN019
     FM282300 28007KT P6SM BKN070
     FM290600 28005KT P6SM SKC
     FM291300 29008KT P6SM FEW040=

USA.gov is the U.S. government's official web portal to all federal, state and local government web resources and services.